createdAt,value
2018-07-02T00:00:10.908Z,21.60
2018-07-02T00:01:13.218Z,21.60
2018-07-02T00:02:15.511Z,21.60
2018-07-02T00:03:17.849Z,21.60
2018-07-02T00:04:20.106Z,21.50
2018-07-02T00:05:22.798Z,21.50
2018-07-02T00:06:37.319Z,21.50
2018-07-02T00:07:39.638Z,21.50
2018-07-02T00:08:41.975Z,21.40
2018-07-02T00:09:44.873Z,21.50
2018-07-02T00:10:47.138Z,21.50
2018-07-02T00:12:51.723Z,21.40
2018-07-02T00:13:53.990Z,21.40
2018-07-02T00:14:56.303Z,21.40
2018-07-02T00:15:58.614Z,21.40
2018-07-02T00:17:00.897Z,21.40
2018-07-02T00:18:03.223Z,21.30
2018-07-02T00:19:05.535Z,21.30
2018-07-02T00:20:07.974Z,21.30
2018-07-02T00:21:10.290Z,21.30
2018-07-02T00:22:12.987Z,21.30
2018-07-02T00:23:15.302Z,21.30
2018-07-02T00:24:17.682Z,21.20
2018-07-02T00:25:19.981Z,21.30
2018-07-02T00:26:22.276Z,21.20
2018-07-02T00:27:24.689Z,21.20
2018-07-02T00:28:27.616Z,21.20
2018-07-02T00:30:32.222Z,21.10
2018-07-02T00:31:34.557Z,21.10
2018-07-02T00:32:36.833Z,21.10
2018-07-02T00:33:39.113Z,21.10
2018-07-02T00:35:43.846Z,21.10
2018-07-02T00:36:46.162Z,21.00
2018-07-02T00:37:48.425Z,21.00
2018-07-02T00:38:50.701Z,21.00
2018-07-02T00:39:52.991Z,21.00
2018-07-02T00:40:55.331Z,21.00
2018-07-02T00:41:57.620Z,21.00
2018-07-02T00:42:59.878Z,21.00
2018-07-02T00:44:02.209Z,21.00
2018-07-02T00:45:04.647Z,21.00
2018-07-02T00:46:06.913Z,21.00
2018-07-02T00:47:09.207Z,20.90
2018-07-02T00:49:13.758Z,20.90
2018-07-02T00:50:16.077Z,21.00
2018-07-02T00:51:18.390Z,20.90
2018-07-02T00:52:20.656Z,20.90
2018-07-02T00:53:22.990Z,21.00
2018-07-02T00:54:25.271Z,20.90
2018-07-02T00:55:27.550Z,20.90
2018-07-02T00:56:29.818Z,20.90
2018-07-02T00:57:32.111Z,20.90
2018-07-02T00:58:34.418Z,20.90
2018-07-02T00:59:36.785Z,20.90
2018-07-02T01:00:39.062Z,20.90
2018-07-02T01:01:41.346Z,20.90
2018-07-02T01:02:43.675Z,21.00
2018-07-02T01:03:46.028Z,20.80
2018-07-02T01:04:48.310Z,21.00
2018-07-02T01:05:50.761Z,20.90
2018-07-02T01:06:53.101Z,20.90
2018-07-02T01:08:57.696Z,20.80
2018-07-02T01:09:59.954Z,20.80
2018-07-02T01:12:04.729Z,20.80
2018-07-02T01:13:07.090Z,20.80
2018-07-02T01:14:09.354Z,20.80
2018-07-02T01:15:11.711Z,20.80
2018-07-02T01:16:14.078Z,20.80
2018-07-02T01:17:16.381Z,20.80
2018-07-02T01:18:18.698Z,20.70
2018-07-02T01:19:20.974Z,20.70
2018-07-02T01:20:23.258Z,20.70
2018-07-02T01:22:27.907Z,20.70
2018-07-02T01:23:30.202Z,20.70
2018-07-02T01:24:32.488Z,20.60
2018-07-02T01:25:34.890Z,20.60
2018-07-02T01:26:37.162Z,20.60
2018-07-02T01:27:39.497Z,20.60
2018-07-02T01:29:44.195Z,20.60
2018-07-02T01:30:46.569Z,20.60
2018-07-02T01:32:51.146Z,20.60
2018-07-02T01:33:53.417Z,20.60
2018-07-02T01:34:55.693Z,20.60
2018-07-02T01:35:58.002Z,20.60
2018-07-02T01:37:00.282Z,20.60
2018-07-02T01:38:02.563Z,20.60
2018-07-02T01:39:07.319Z,20.60
2018-07-02T01:41:11.910Z,20.60
2018-07-02T01:42:14.207Z,20.60
2018-07-02T01:43:16.590Z,20.50
2018-07-02T01:44:18.879Z,20.60
2018-07-02T01:45:21.159Z,20.50
2018-07-02T01:46:23.464Z,20.60
2018-07-02T01:47:25.747Z,20.50
2018-07-02T01:48:28.091Z,20.50
2018-07-02T01:49:30.371Z,20.50
2018-07-02T01:50:32.643Z,20.50
2018-07-02T01:51:34.903Z,20.50
2018-07-02T01:52:37.235Z,20.50
2018-07-02T01:53:39.578Z,20.50
2018-07-02T01:54:41.894Z,20.50
2018-07-02T01:55:44.231Z,20.50
2018-07-02T01:56:46.494Z,20.40
2018-07-02T01:57:48.811Z,20.40
2018-07-02T01:58:51.331Z,20.40
2018-07-02T01:59:53.616Z,20.40
2018-07-02T02:00:55.914Z,20.40
2018-07-02T02:01:58.283Z,20.40
2018-07-02T02:03:00.770Z,20.40
2018-07-02T02:04:03.102Z,20.40
2018-07-02T02:06:07.694Z,20.40
2018-07-02T02:07:10.007Z,20.40
2018-07-02T02:08:12.302Z,20.40
2018-07-02T02:09:14.590Z,20.30
2018-07-02T02:10:16.915Z,20.30
2018-07-02T02:11:19.570Z,20.30
2018-07-02T02:12:21.830Z,20.30
2018-07-02T02:13:24.110Z,20.20
2018-07-02T02:14:26.382Z,20.30
2018-07-02T02:15:28.900Z,20.30
2018-07-02T02:16:31.194Z,20.20
2018-07-02T02:17:33.870Z,20.30
2018-07-02T02:18:36.148Z,20.30
2018-07-02T02:19:38.465Z,20.20
2018-07-02T02:20:40.818Z,20.10
2018-07-02T02:21:43.094Z,20.10
2018-07-02T02:22:45.370Z,20.10
2018-07-02T02:23:47.677Z,20.10
2018-07-02T02:24:49.967Z,20.00
2018-07-02T02:25:52.370Z,20.10
2018-07-02T02:26:54.694Z,20.00
2018-07-02T02:27:57.006Z,20.00
2018-07-02T02:28:59.406Z,20.00
2018-07-02T02:30:02.118Z,20.10
2018-07-02T02:31:04.493Z,20.00
2018-07-02T02:32:06.785Z,20.00
2018-07-02T02:33:09.140Z,20.00
2018-07-02T02:34:11.407Z,20.00
2018-07-02T02:35:13.665Z,20.00
2018-07-02T02:37:18.216Z,20.00
2018-07-02T02:38:20.539Z,20.00
2018-07-02T02:39:22.810Z,19.90
2018-07-02T02:40:25.107Z,19.90
2018-07-02T02:41:27.440Z,19.90
2018-07-02T02:42:29.806Z,19.90
2018-07-02T02:43:32.102Z,19.90
2018-07-02T02:44:34.404Z,19.90
2018-07-02T02:45:36.700Z,19.80
2018-07-02T02:46:39.014Z,19.80
2018-07-02T02:47:41.302Z,19.80
2018-07-02T02:48:43.563Z,19.80
2018-07-02T02:49:45.850Z,19.80
2018-07-02T02:50:48.149Z,19.70
2018-07-02T02:51:50.504Z,19.70
2018-07-02T02:52:52.778Z,19.70
2018-07-02T02:53:55.255Z,19.70
2018-07-02T02:54:57.556Z,19.70
2018-07-02T02:55:59.822Z,19.80
2018-07-02T02:57:02.123Z,19.80
2018-07-02T02:58:04.898Z,19.70
2018-07-02T02:59:07.200Z,19.70
2018-07-02T03:00:09.458Z,19.70
2018-07-02T03:01:11.750Z,19.70
2018-07-02T03:02:14.038Z,19.70
2018-07-02T03:03:16.350Z,19.70
2018-07-02T03:04:18.703Z,19.70
2018-07-02T03:05:21.018Z,19.70
2018-07-02T03:06:23.326Z,19.70
2018-07-02T03:07:25.588Z,19.70
2018-07-02T03:08:27.886Z,19.80
2018-07-02T03:09:30.218Z,19.70
2018-07-02T03:10:32.686Z,19.70
2018-07-02T03:11:35.085Z,19.70
2018-07-02T03:12:37.319Z,19.70
2018-07-02T03:13:39.607Z,19.60
2018-07-02T03:14:41.934Z,19.70
2018-07-02T03:15:44.269Z,19.70
2018-07-02T03:16:46.612Z,19.70
2018-07-02T03:18:51.157Z,19.70
2018-07-02T03:19:53.438Z,19.70
2018-07-02T03:20:55.747Z,19.70
2018-07-02T03:23:00.350Z,19.60
2018-07-02T03:24:02.733Z,19.70
2018-07-02T03:25:05.077Z,19.60
2018-07-02T03:26:07.343Z,19.70
2018-07-02T03:27:09.646Z,19.60
2018-07-02T03:28:11.918Z,19.60
2018-07-02T03:29:14.222Z,19.60
2018-07-02T03:30:16.495Z,19.60
2018-07-02T03:31:18.791Z,19.60
2018-07-02T03:32:21.162Z,19.60
2018-07-02T03:33:28.417Z,19.60
2018-07-02T03:35:47.732Z,19.50
2018-07-02T03:36:50.212Z,19.50
2018-07-02T03:37:52.507Z,19.50
2018-07-02T03:38:54.803Z,19.50
2018-07-02T03:39:57.231Z,19.40
2018-07-02T03:40:59.871Z,19.40
2018-07-02T03:42:02.316Z,19.40
2018-07-02T03:43:04.647Z,19.50
2018-07-02T03:44:07.425Z,19.40
2018-07-02T03:45:09.761Z,19.40
2018-07-02T03:46:12.096Z,19.40
2018-07-02T03:48:16.859Z,19.40
2018-07-02T03:49:20.030Z,19.30
2018-07-02T03:50:22.335Z,19.40
2018-07-02T03:51:27.926Z,19.30
2018-07-02T03:53:32.684Z,19.30
2018-07-02T03:54:35.042Z,19.30
2018-07-02T03:55:37.463Z,19.30
2018-07-02T03:56:39.858Z,19.30
2018-07-02T03:57:42.236Z,19.30
2018-07-02T03:58:44.604Z,19.30
2018-07-02T03:59:46.970Z,19.30
2018-07-02T04:00:49.335Z,19.30
2018-07-02T04:01:51.638Z,19.20
2018-07-02T04:02:53.942Z,19.30
2018-07-02T04:03:56.251Z,19.20
2018-07-02T04:04:58.629Z,19.30
2018-07-02T04:07:03.374Z,19.20
2018-07-02T04:08:05.786Z,19.20
2018-07-02T04:09:09.487Z,19.20
2018-07-02T04:10:11.828Z,19.20
2018-07-02T04:11:14.166Z,19.20
2018-07-02T04:12:16.834Z,19.30
2018-07-02T04:13:19.274Z,19.30
2018-07-02T04:14:21.707Z,19.30
2018-07-02T04:15:24.028Z,19.30
2018-07-02T04:16:26.314Z,19.20
2018-07-02T04:17:28.715Z,19.30
2018-07-02T04:18:31.007Z,19.30
2018-07-02T04:19:33.421Z,19.30
2018-07-02T04:20:35.838Z,19.20
2018-07-02T04:21:39.573Z,19.20
2018-07-02T04:22:42.035Z,19.20
2018-07-02T04:23:44.610Z,19.20
2018-07-02T04:24:46.894Z,19.20
2018-07-02T04:25:49.251Z,19.20
2018-07-02T04:28:56.239Z,19.20
2018-07-02T04:29:58.497Z,19.20
2018-07-02T04:31:00.743Z,19.20
2018-07-02T04:32:03.146Z,19.30
2018-07-02T04:33:05.455Z,19.20
2018-07-02T04:34:07.764Z,19.20
2018-07-02T04:35:09.989Z,19.20
2018-07-02T04:36:12.266Z,19.20
2018-07-02T04:38:16.793Z,19.20
2018-07-02T04:39:19.024Z,19.30
2018-07-02T04:40:21.327Z,19.30
2018-07-02T04:41:23.608Z,19.30
2018-07-02T04:42:25.890Z,19.10
2018-07-02T04:43:28.113Z,19.20
2018-07-02T04:44:30.347Z,19.20
2018-07-02T04:45:32.553Z,19.20
2018-07-02T04:46:34.834Z,19.20
2018-07-02T04:47:37.071Z,19.10
2018-07-02T04:48:39.306Z,19.20
2018-07-02T04:49:41.536Z,19.10
2018-07-02T04:50:43.767Z,19.10
2018-07-02T04:51:45.989Z,19.10
2018-07-02T04:52:48.226Z,19.20
2018-07-02T04:54:52.802Z,19.20
2018-07-02T04:55:55.063Z,19.20
2018-07-02T04:56:57.410Z,19.20
2018-07-02T04:57:59.759Z,19.20
2018-07-02T04:59:02.049Z,19.30
2018-07-02T05:00:04.675Z,19.30
2018-07-02T05:01:07.889Z,19.40
2018-07-02T05:02:10.118Z,19.40
2018-07-02T05:03:12.331Z,19.40
2018-07-02T05:04:14.570Z,19.40
2018-07-02T05:05:16.775Z,19.50
2018-07-02T05:06:18.990Z,19.40
2018-07-02T05:07:21.195Z,19.50
2018-07-02T05:08:23.406Z,19.50
2018-07-02T05:09:25.707Z,19.50
2018-07-02T05:11:30.185Z,19.60
2018-07-02T05:12:32.393Z,19.60
2018-07-02T05:13:34.597Z,19.60
2018-07-02T05:14:36.911Z,19.60
2018-07-02T05:16:41.403Z,19.60
2018-07-02T05:17:43.646Z,19.60
2018-07-02T05:18:45.858Z,19.60
2018-07-02T05:19:48.062Z,19.70
2018-07-02T05:20:50.498Z,19.70
2018-07-02T05:21:52.729Z,19.60
2018-07-02T05:22:55.040Z,19.70
2018-07-02T05:23:57.363Z,19.70
2018-07-02T05:24:59.641Z,19.70
2018-07-02T05:26:01.898Z,19.80
2018-07-02T05:27:04.279Z,19.70
2018-07-02T05:28:06.498Z,19.80
2018-07-02T05:29:08.718Z,19.70
2018-07-02T05:30:11.112Z,19.70
2018-07-02T05:31:13.244Z,19.70
2018-07-02T05:32:15.539Z,19.80
2018-07-02T05:33:17.846Z,19.80
2018-07-02T05:34:20.085Z,19.90
2018-07-02T05:35:22.352Z,19.90
2018-07-02T05:36:24.653Z,19.90
2018-07-02T05:37:26.974Z,19.90
2018-07-02T05:38:29.229Z,19.90
2018-07-02T05:39:31.500Z,19.90
2018-07-02T05:40:33.831Z,20.10
2018-07-02T05:41:36.147Z,20.00
2018-07-02T05:42:38.456Z,20.10
2018-07-02T05:43:40.744Z,20.00
2018-07-02T05:44:43.096Z,20.20
2018-07-02T05:45:45.443Z,20.20
2018-07-02T05:46:47.937Z,20.30
2018-07-02T05:47:50.298Z,20.40
2018-07-02T05:48:52.552Z,20.40
2018-07-02T05:49:54.800Z,20.50
2018-07-02T05:50:57.006Z,20.70
2018-07-02T05:51:59.248Z,20.60
2018-07-02T05:53:01.582Z,20.70
2018-07-02T05:54:03.754Z,20.80
2018-07-02T05:55:06.046Z,20.80
2018-07-02T05:56:08.347Z,20.90
2018-07-02T05:57:10.643Z,20.90
2018-07-02T05:58:12.901Z,21.00
2018-07-02T05:59:15.278Z,21.10
2018-07-02T06:00:17.618Z,21.10
2018-07-02T06:01:20.550Z,21.20
2018-07-02T06:02:22.814Z,21.20
2018-07-02T06:03:25.166Z,21.30
2018-07-02T06:05:30.199Z,21.30
2018-07-02T06:07:34.722Z,21.40
2018-07-02T06:08:37.099Z,21.40
2018-07-02T06:09:40.007Z,21.50
2018-07-02T06:10:42.307Z,21.60
2018-07-02T06:11:44.558Z,21.70
2018-07-02T06:12:46.831Z,21.70
2018-07-02T06:13:49.899Z,21.80
2018-07-02T06:14:52.179Z,21.90
2018-07-02T06:15:54.467Z,22.00
2018-07-02T06:16:56.779Z,22.10
2018-07-02T06:17:59.963Z,22.20
2018-07-02T06:19:02.278Z,22.20
2018-07-02T06:20:05.118Z,22.30
2018-07-02T06:21:09.655Z,22.40
2018-07-02T06:22:12.035Z,22.40
2018-07-02T06:23:14.318Z,22.60
2018-07-02T06:24:16.610Z,22.60
2018-07-02T06:25:19.610Z,22.70
2018-07-02T06:26:22.002Z,22.80
2018-07-02T06:27:24.310Z,22.80
2018-07-02T06:28:26.627Z,22.90
2018-07-02T06:29:31.066Z,23.00
2018-07-02T06:30:33.379Z,23.00
2018-07-02T06:31:37.839Z,23.00
2018-07-02T06:33:42.406Z,23.10
2018-07-02T06:34:45.954Z,23.10
2018-07-02T06:35:48.158Z,23.10
2018-07-02T06:36:50.398Z,23.00
2018-07-02T06:37:52.637Z,23.10
2018-07-02T06:39:59.127Z,23.10
2018-07-02T06:41:01.445Z,23.20
2018-07-02T06:42:03.762Z,23.20
2018-07-02T06:43:05.968Z,23.30
2018-07-02T06:44:08.181Z,23.30
2018-07-02T06:45:10.417Z,23.40
2018-07-02T06:46:12.660Z,23.40
2018-07-02T06:47:14.909Z,23.50
2018-07-02T06:48:17.131Z,23.60
2018-07-02T06:49:19.371Z,23.50
2018-07-02T06:50:21.582Z,23.50
2018-07-02T06:51:23.790Z,23.50
2018-07-02T06:52:26.043Z,23.50
2018-07-02T06:53:28.262Z,23.50
2018-07-02T06:54:30.474Z,23.50
2018-07-02T06:55:32.699Z,23.50
2018-07-02T06:56:34.936Z,23.40
2018-07-02T06:57:37.236Z,23.40
2018-07-02T06:58:39.502Z,23.30
2018-07-02T06:59:41.718Z,23.20
2018-07-02T07:00:43.956Z,23.20
2018-07-02T07:01:46.283Z,23.20
2018-07-02T07:02:48.510Z,23.20
2018-07-02T07:03:50.746Z,23.30
2018-07-02T07:04:52.969Z,23.40
2018-07-02T07:05:55.210Z,23.40
2018-07-02T07:06:57.422Z,23.40
2018-07-02T07:07:59.662Z,23.50
2018-07-02T07:09:01.973Z,23.50
2018-07-02T07:11:06.815Z,23.50
2018-07-02T07:12:09.071Z,23.60
2018-07-02T07:13:11.295Z,23.60
2018-07-02T07:14:13.554Z,23.70
2018-07-02T07:15:15.801Z,23.70
2018-07-02T07:16:18.014Z,23.70
2018-07-02T07:17:20.334Z,23.70
2018-07-02T07:18:22.561Z,23.70
2018-07-02T07:19:24.774Z,23.70
2018-07-02T07:20:26.982Z,23.60
2018-07-02T07:21:29.194Z,23.60
2018-07-02T07:22:31.443Z,23.70
2018-07-02T07:23:33.674Z,23.70
2018-07-02T07:24:35.908Z,23.70
2018-07-02T07:25:38.173Z,23.70
2018-07-02T07:26:40.386Z,23.70
2018-07-02T07:27:42.671Z,23.70
2018-07-02T07:29:47.115Z,23.80
2018-07-02T07:30:49.333Z,23.80
2018-07-02T07:31:51.550Z,23.80
2018-07-02T07:32:53.761Z,23.80
2018-07-02T07:33:56.096Z,23.90
2018-07-02T07:34:58.318Z,23.90
2018-07-02T07:36:00.530Z,23.90
2018-07-02T07:37:02.774Z,23.90
2018-07-02T07:38:05.010Z,23.90
2018-07-02T07:39:08.473Z,24.00
2018-07-02T07:40:10.767Z,24.00
2018-07-02T07:41:12.981Z,24.00
2018-07-02T07:42:15.182Z,24.00
2018-07-02T07:43:17.435Z,24.00
2018-07-02T07:44:19.666Z,24.00
2018-07-02T07:45:21.890Z,24.10
2018-07-02T07:47:26.900Z,24.10
2018-07-02T07:48:29.330Z,24.10
2018-07-02T07:49:31.569Z,24.10
2018-07-02T07:50:33.822Z,24.10
2018-07-02T07:51:36.058Z,24.20
2018-07-02T07:52:38.302Z,24.20
2018-07-02T07:53:40.542Z,24.20
2018-07-02T07:54:42.805Z,24.20
2018-07-02T07:55:45.054Z,24.20
2018-07-02T07:56:47.306Z,24.20
2018-07-02T07:57:49.518Z,24.10
2018-07-02T07:58:51.821Z,24.20
2018-07-02T07:59:54.070Z,24.10
2018-07-02T08:00:56.338Z,24.10
2018-07-02T08:01:58.558Z,24.10
2018-07-02T08:03:00.793Z,24.10
2018-07-02T08:04:03.054Z,24.10
2018-07-02T08:05:05.694Z,24.20
2018-07-02T08:06:07.948Z,24.20
2018-07-02T08:07:10.205Z,24.20
2018-07-02T08:09:14.703Z,24.10
2018-07-02T08:10:16.934Z,24.20
2018-07-02T08:11:25.950Z,24.20
2018-07-02T08:12:28.235Z,24.30
2018-07-02T08:13:30.446Z,24.30
2018-07-02T08:14:32.683Z,24.30
2018-07-02T08:15:34.911Z,24.40
2018-07-02T08:16:37.145Z,24.40
2018-07-02T08:17:39.394Z,24.50
2018-07-02T08:18:41.614Z,24.50
2018-07-02T08:19:43.818Z,24.50
2018-07-02T08:20:46.038Z,24.60
2018-07-02T08:21:48.635Z,24.60
2018-07-02T08:22:50.873Z,24.60
2018-07-02T08:23:53.083Z,24.60
2018-07-02T08:24:55.334Z,24.50
2018-07-02T08:25:57.571Z,24.60
2018-07-02T08:26:59.788Z,24.60
2018-07-02T08:28:02.038Z,24.50
2018-07-02T08:29:04.278Z,24.60
2018-07-02T08:30:06.729Z,24.60
2018-07-02T08:31:08.966Z,24.60
2018-07-02T08:32:11.182Z,24.60
2018-07-02T08:33:13.407Z,24.70
2018-07-02T08:34:15.634Z,24.70
2018-07-02T08:35:17.886Z,24.70
2018-07-02T08:36:20.186Z,24.70
2018-07-02T08:37:22.410Z,24.80
2018-07-02T08:38:24.646Z,24.70
2018-07-02T08:39:26.914Z,24.80
2018-07-02T08:40:29.171Z,24.60
2018-07-02T08:42:33.747Z,24.60
2018-07-02T08:43:35.978Z,24.50
2018-07-02T08:44:38.197Z,24.50
2018-07-02T08:45:40.446Z,24.50
2018-07-02T08:47:44.906Z,24.60
2018-07-02T08:48:47.127Z,24.60
2018-07-02T08:49:49.329Z,24.80
2018-07-02T08:50:51.541Z,24.70
2018-07-02T08:51:53.757Z,24.70
2018-07-02T08:52:55.980Z,24.80
2018-07-02T08:53:58.262Z,24.80
2018-07-02T08:55:00.489Z,24.80
2018-07-02T08:56:02.735Z,24.90
2018-07-02T08:57:04.941Z,24.90
2018-07-02T08:58:07.154Z,24.90
2018-07-02T08:59:09.353Z,24.90
2018-07-02T09:01:20.683Z,25.00
2018-07-02T09:02:22.922Z,25.00
2018-07-02T09:03:25.137Z,25.00
2018-07-02T09:04:27.377Z,25.00
2018-07-02T09:05:29.655Z,25.10
2018-07-02T09:06:31.877Z,25.10
2018-07-02T09:07:34.071Z,25.10
2018-07-02T09:08:36.266Z,25.10
2018-07-02T09:09:38.464Z,25.20
2018-07-02T09:11:42.919Z,25.30
2018-07-02T09:12:45.128Z,25.40
2018-07-02T09:13:47.355Z,25.40
2018-07-02T09:14:49.592Z,25.40
2018-07-02T09:15:51.846Z,25.40
2018-07-02T09:16:54.057Z,25.50
2018-07-02T09:18:58.612Z,25.40
2018-07-02T09:20:00.759Z,25.40
2018-07-02T09:21:03.035Z,25.50
2018-07-02T09:23:14.211Z,25.40
2018-07-02T09:24:16.443Z,25.40
2018-07-02T09:25:18.812Z,25.40
2018-07-02T09:26:20.931Z,25.40
2018-07-02T09:27:23.179Z,25.40
2018-07-02T09:28:25.414Z,25.50
2018-07-02T09:29:27.618Z,25.50
2018-07-02T09:30:29.830Z,25.50
2018-07-02T09:31:32.081Z,25.60
2018-07-02T09:32:34.342Z,25.50
2018-07-02T09:33:36.507Z,25.50
2018-07-02T09:34:38.747Z,25.50
2018-07-02T09:35:41.007Z,25.50
2018-07-02T09:36:43.238Z,25.60
2018-07-02T09:37:45.478Z,25.70
2018-07-02T09:38:47.694Z,25.70
2018-07-02T09:39:49.894Z,25.60
2018-07-02T09:40:52.138Z,25.80
2018-07-02T09:41:54.358Z,25.70
2018-07-02T09:42:56.580Z,25.70
2018-07-02T09:43:58.774Z,25.70
2018-07-02T09:45:00.985Z,25.80
2018-07-02T09:46:03.198Z,25.90
2018-07-02T09:47:05.446Z,25.80
2018-07-02T09:48:07.691Z,25.80
2018-07-02T09:49:09.891Z,25.80
2018-07-02T09:50:12.152Z,25.80
2018-07-02T09:51:14.381Z,25.80
2018-07-02T09:52:16.769Z,25.70
2018-07-02T09:53:19.023Z,25.80
2018-07-02T09:54:21.257Z,25.80
2018-07-02T09:55:23.527Z,25.90
2018-07-02T09:56:25.743Z,25.90
2018-07-02T09:57:27.990Z,25.90
2018-07-02T09:59:32.459Z,25.90
2018-07-02T10:01:38.734Z,25.90
2018-07-02T10:02:41.018Z,26.00
2018-07-02T10:03:43.275Z,26.10
2018-07-02T10:04:45.486Z,26.10
2018-07-02T10:05:47.727Z,26.20
2018-07-02T10:06:50.006Z,26.20
2018-07-02T10:07:52.263Z,26.30
2018-07-02T10:08:54.659Z,26.40
2018-07-02T10:10:59.157Z,26.30
2018-07-02T10:12:01.430Z,26.40
2018-07-02T10:14:06.035Z,26.40
2018-07-02T10:15:08.286Z,26.50
2018-07-02T10:16:10.571Z,26.50
2018-07-02T10:18:15.122Z,26.60
2018-07-02T10:19:17.385Z,26.60
2018-07-02T10:20:19.687Z,26.70
2018-07-02T10:21:21.939Z,26.70
2018-07-02T10:22:24.284Z,26.70
2018-07-02T10:23:26.716Z,26.70
2018-07-02T10:24:28.974Z,26.70
2018-07-02T10:25:38.126Z,26.70
2018-07-02T10:26:40.387Z,26.70
2018-07-02T10:27:42.640Z,26.70
2018-07-02T10:28:44.910Z,26.70
2018-07-02T10:29:47.263Z,26.80
2018-07-02T10:30:49.535Z,26.70
2018-07-02T10:31:51.757Z,26.70
2018-07-02T10:32:54.007Z,26.80
2018-07-02T10:33:56.262Z,26.70
2018-07-02T10:34:58.583Z,26.70
2018-07-02T10:36:00.899Z,26.80
2018-07-02T10:37:03.203Z,26.80
2018-07-02T10:38:05.503Z,26.80
2018-07-02T10:39:08.075Z,26.80
2018-07-02T10:40:10.367Z,26.80
2018-07-02T10:42:14.929Z,26.80
2018-07-02T10:43:17.181Z,26.80
2018-07-02T10:44:19.413Z,26.80
2018-07-02T10:45:21.658Z,26.80
2018-07-02T10:46:23.902Z,26.70
2018-07-02T10:47:26.154Z,26.70
2018-07-02T10:48:28.398Z,26.70
2018-07-02T10:50:32.919Z,26.80
2018-07-02T10:51:35.169Z,26.80
2018-07-02T10:53:39.723Z,26.80
2018-07-02T10:54:41.930Z,26.80
2018-07-02T10:55:44.236Z,26.80
2018-07-02T10:56:46.519Z,26.90
2018-07-02T10:57:48.774Z,26.90
2018-07-02T10:58:51.010Z,27.00
2018-07-02T10:59:53.310Z,27.00
2018-07-02T11:00:55.582Z,27.10
2018-07-02T11:01:57.826Z,27.10
2018-07-02T11:03:00.098Z,27.30
2018-07-02T11:04:02.392Z,27.30
2018-07-02T11:05:04.657Z,27.30
2018-07-02T11:07:09.150Z,27.40
2018-07-02T11:08:11.508Z,27.40
2018-07-02T11:09:13.830Z,27.40
2018-07-02T11:10:16.114Z,27.20
2018-07-02T11:11:18.553Z,27.40
2018-07-02T11:12:20.874Z,27.40
2018-07-02T11:13:23.184Z,27.40
2018-07-02T11:14:25.662Z,27.40
2018-07-02T11:15:29.233Z,27.40
2018-07-02T11:16:31.677Z,27.50
2018-07-02T11:17:33.915Z,27.50
2018-07-02T11:19:38.433Z,27.60
2018-07-02T11:20:41.385Z,27.70
2018-07-02T11:21:43.674Z,27.80
2018-07-02T11:23:48.243Z,27.80
2018-07-02T11:24:50.499Z,27.80
2018-07-02T11:25:52.724Z,27.90
2018-07-02T11:26:54.986Z,27.90
2018-07-02T11:27:57.282Z,27.90
2018-07-02T11:28:59.521Z,27.90
2018-07-02T11:30:01.799Z,27.90
2018-07-02T11:31:04.063Z,27.90
2018-07-02T11:32:06.299Z,27.90
2018-07-02T11:33:08.536Z,27.90
2018-07-02T11:34:10.823Z,28.00
2018-07-02T11:35:13.080Z,28.00
2018-07-02T11:36:15.350Z,28.00
2018-07-02T11:37:17.575Z,28.10
2018-07-02T11:39:22.140Z,28.00
2018-07-02T11:40:24.391Z,28.00
2018-07-02T11:41:26.625Z,28.10
2018-07-02T11:42:28.868Z,28.10
2018-07-02T11:43:31.121Z,28.10
2018-07-02T11:44:33.371Z,28.10
2018-07-02T11:45:35.626Z,28.20
2018-07-02T11:46:37.934Z,28.20
2018-07-02T11:48:42.472Z,28.30
2018-07-02T11:49:44.705Z,28.30
2018-07-02T11:51:49.241Z,28.40
2018-07-02T11:52:51.503Z,28.50
2018-07-02T11:53:53.737Z,28.60
2018-07-02T11:54:55.983Z,28.70
2018-07-02T11:55:58.294Z,28.70
2018-07-02T11:57:00.647Z,28.80
2018-07-02T11:58:02.934Z,28.80
2018-07-02T11:59:05.271Z,28.90
2018-07-02T12:00:08.478Z,29.00
2018-07-02T12:01:10.734Z,29.00
2018-07-02T12:02:13.009Z,29.00
2018-07-02T12:03:15.265Z,29.00
2018-07-02T12:04:17.563Z,29.10
2018-07-02T12:05:19.775Z,29.10
2018-07-02T12:06:22.036Z,29.10
2018-07-02T12:07:24.274Z,29.20
2018-07-02T12:08:26.564Z,29.20
2018-07-02T12:09:28.806Z,29.20
2018-07-02T12:10:31.084Z,29.20
2018-07-02T12:11:33.348Z,29.20
2018-07-02T12:12:35.651Z,29.20
2018-07-02T12:13:37.908Z,29.30
2018-07-02T12:14:40.190Z,29.30
2018-07-02T12:15:42.435Z,29.30
2018-07-02T12:16:44.700Z,29.30
2018-07-02T12:17:46.975Z,29.30
2018-07-02T12:18:49.238Z,29.30
2018-07-02T12:19:51.497Z,29.30
2018-07-02T12:20:53.766Z,29.30
2018-07-02T12:21:56.054Z,29.40
2018-07-02T12:22:58.302Z,29.40
2018-07-02T12:24:00.556Z,29.30
2018-07-02T12:25:02.884Z,29.40
2018-07-02T12:26:05.241Z,29.40
2018-07-02T12:27:07.454Z,29.50
2018-07-02T12:28:09.751Z,29.60
2018-07-02T12:29:11.973Z,29.60
2018-07-02T12:30:14.226Z,29.70
2018-07-02T12:31:16.490Z,29.80
2018-07-02T12:32:18.762Z,29.90
2018-07-02T12:33:21.031Z,29.90
2018-07-02T12:34:23.262Z,29.90
2018-07-02T12:35:25.538Z,29.90
2018-07-02T12:36:28.743Z,30.00
2018-07-02T12:37:31.022Z,30.00
2018-07-02T12:38:33.284Z,30.10
2018-07-02T12:40:37.838Z,30.30
2018-07-02T12:41:40.911Z,30.30
2018-07-02T12:42:43.182Z,30.40
2018-07-02T12:43:45.423Z,30.40
2018-07-02T12:44:47.711Z,30.40
2018-07-02T12:45:49.950Z,30.50
2018-07-02T12:46:52.267Z,30.40
2018-07-02T12:48:57.256Z,30.20
2018-07-02T12:49:59.522Z,30.20
2018-07-02T12:51:01.767Z,30.30
2018-07-02T12:52:04.057Z,30.40
2018-07-02T12:53:06.387Z,30.50
2018-07-02T12:54:08.665Z,30.60
2018-07-02T12:55:10.903Z,30.60
2018-07-02T12:56:13.167Z,30.60
2018-07-02T12:57:15.422Z,30.60
2018-07-02T12:58:17.683Z,30.70
2018-07-02T12:59:19.946Z,30.70
2018-07-02T13:00:22.206Z,30.70
2018-07-02T13:01:24.430Z,30.70
2018-07-02T13:02:26.713Z,30.80
2018-07-02T13:03:28.951Z,30.80
2018-07-02T13:04:31.166Z,30.80
2018-07-02T13:05:33.518Z,30.90
2018-07-02T13:07:38.052Z,30.90
2018-07-02T13:08:40.314Z,31.00
2018-07-02T13:09:42.611Z,31.10
2018-07-02T13:10:44.886Z,31.10
2018-07-02T13:11:47.133Z,31.20
2018-07-02T13:12:49.360Z,31.30
2018-07-02T13:13:51.646Z,31.40
2018-07-02T13:14:53.896Z,31.50
2018-07-02T13:15:56.930Z,31.50
2018-07-02T13:16:59.207Z,31.60
2018-07-02T13:18:01.472Z,31.70
2018-07-02T13:19:03.742Z,31.70
2018-07-02T13:20:06.072Z,31.80
2018-07-02T13:21:08.346Z,31.80
2018-07-02T13:22:10.583Z,31.90
2018-07-02T13:23:12.855Z,31.90
2018-07-02T13:24:15.086Z,31.90
2018-07-02T13:25:17.333Z,31.90
2018-07-02T13:26:19.595Z,31.90
2018-07-02T13:27:21.859Z,31.90
2018-07-02T13:28:24.561Z,31.80
2018-07-02T13:29:26.785Z,31.80
2018-07-02T13:30:29.047Z,31.80
2018-07-02T13:31:31.318Z,31.90
2018-07-02T13:32:33.609Z,31.90
2018-07-02T13:33:35.869Z,31.80
2018-07-02T13:34:38.135Z,31.70
2018-07-02T13:35:40.358Z,31.60
2018-07-02T13:36:42.755Z,31.60
2018-07-02T13:37:44.913Z,31.50
2018-07-02T13:38:47.480Z,31.60
2018-07-02T13:39:49.694Z,31.60
2018-07-02T13:40:51.951Z,31.60
2018-07-02T13:42:56.471Z,31.40
2018-07-02T13:43:58.730Z,31.40
2018-07-02T13:46:03.494Z,31.40
2018-07-02T13:47:05.929Z,31.40
2018-07-02T13:48:08.196Z,31.40
2018-07-02T13:49:10.442Z,31.40
2018-07-02T13:50:12.698Z,31.40
2018-07-02T13:51:14.940Z,31.40
2018-07-02T13:52:17.198Z,31.40
2018-07-02T13:53:19.532Z,31.40
2018-07-02T13:54:21.780Z,31.40
2018-07-02T13:55:24.071Z,31.40
2018-07-02T13:56:26.330Z,31.50
2018-07-02T13:57:28.594Z,31.40
2018-07-02T13:58:30.842Z,31.30
2018-07-02T13:59:33.122Z,31.30
2018-07-02T14:00:35.344Z,31.30
2018-07-02T14:01:37.621Z,31.40
2018-07-02T14:02:39.859Z,31.40
2018-07-02T14:03:42.103Z,31.40
2018-07-02T14:04:44.325Z,31.40
2018-07-02T14:05:46.580Z,31.50
2018-07-02T14:06:48.827Z,31.40
2018-07-02T14:07:51.085Z,31.30
2018-07-02T14:08:53.354Z,31.10
2018-07-02T14:09:55.582Z,31.10
2018-07-02T14:10:57.826Z,31.10
2018-07-02T14:12:00.101Z,31.10
2018-07-02T14:13:02.362Z,31.10
2018-07-02T14:14:04.627Z,31.00
2018-07-02T14:15:07.783Z,31.00
2018-07-02T14:16:10.027Z,30.90
2018-07-02T14:17:12.323Z,30.90
2018-07-02T14:18:14.551Z,30.90
2018-07-02T14:19:16.807Z,30.80
2018-07-02T14:20:19.050Z,30.80
2018-07-02T14:21:21.318Z,30.80
2018-07-02T14:22:24.016Z,30.80